createdAt,value
2018-03-04T00:00:30.033Z,16.67
2018-03-04T00:02:56.181Z,17.17
2018-03-04T00:05:22.118Z,16.92
2018-03-04T00:07:51.484Z,14.87
2018-03-04T00:10:17.372Z,16.15
2018-03-04T00:12:44.077Z,16.60
2018-03-04T00:15:10.090Z,14.85
2018-03-04T00:17:38.617Z,15.55
2018-03-04T00:20:04.505Z,16.02
2018-03-04T00:22:40.592Z,15.10
2018-03-04T00:25:06.490Z,15.07
2018-03-04T00:27:32.392Z,18.87
2018-03-04T00:30:01.322Z,17.40
2018-03-04T00:32:27.225Z,17.55
2018-03-04T00:34:53.144Z,16.67
2018-03-04T00:37:19.021Z,16.33
2018-03-04T00:39:44.926Z,16.93
2018-03-04T00:42:10.824Z,17.07
2018-03-04T00:44:36.725Z,17.60
2018-03-04T00:47:02.623Z,17.13
2018-03-04T00:49:31.073Z,17.53
2018-03-04T00:51:56.949Z,16.40
2018-03-04T00:54:26.046Z,17.97
2018-03-04T00:56:51.928Z,16.77
2018-03-04T00:59:19.353Z,17.93
2018-03-04T01:01:45.265Z,20.10
2018-03-04T01:04:15.079Z,18.47
2018-03-04T01:06:40.998Z,17.83
2018-03-04T01:09:07.165Z,19.23
2018-03-04T01:11:33.085Z,16.67
2018-03-04T01:13:58.990Z,17.90
2018-03-04T01:16:25.441Z,17.10
2018-03-04T01:18:51.387Z,17.12
2018-03-04T01:21:20.120Z,15.90
2018-03-04T01:23:46.032Z,16.60
2018-03-04T01:26:15.112Z,16.33
2018-03-04T01:28:41.108Z,16.77
2018-03-04T01:31:10.534Z,15.40
2018-03-04T01:33:36.440Z,16.98
2018-03-04T01:36:06.001Z,17.13
2018-03-04T01:38:32.472Z,15.70
2018-03-04T01:40:58.903Z,18.25
2018-03-04T01:43:24.905Z,16.77
2018-03-04T01:45:50.843Z,17.30
2018-03-04T01:48:16.747Z,17.93
2018-03-04T01:50:42.627Z,17.03
2018-03-04T01:53:12.189Z,17.53
2018-03-04T01:55:38.213Z,16.20
2018-03-04T01:58:07.210Z,16.17
2018-03-04T02:00:33.108Z,17.10
2018-03-04T02:03:01.069Z,17.03
2018-03-04T02:05:26.973Z,18.25
2018-03-04T02:07:55.951Z,18.37
2018-03-04T02:10:21.889Z,18.73
2018-03-04T02:12:51.205Z,15.50
2018-03-04T02:15:17.116Z,17.12
2018-03-04T02:17:46.146Z,17.13
2018-03-04T02:20:12.021Z,17.40
2018-03-04T02:22:37.972Z,17.47
2018-03-04T02:25:03.868Z,17.20
2018-03-04T02:27:29.777Z,16.67
2018-03-04T02:29:56.548Z,16.30
2018-03-04T02:32:22.438Z,19.15
2018-03-04T02:34:52.061Z,18.03
2018-03-04T02:37:17.946Z,16.37
2018-03-04T02:39:47.013Z,17.50
2018-03-04T02:42:12.921Z,16.33
2018-03-04T02:44:40.669Z,15.83
2018-03-04T02:47:06.590Z,15.23
2018-03-04T02:49:36.497Z,15.53
2018-03-04T02:52:02.396Z,15.02
2018-03-04T02:54:30.129Z,14.33
2018-03-04T02:56:56.017Z,15.73
2018-03-04T02:59:21.929Z,15.20
2018-03-04T03:01:47.817Z,14.50
2018-03-04T03:04:13.764Z,13.70
2018-03-04T03:06:41.312Z,11.53
2018-03-04T03:09:07.413Z,13.62
2018-03-04T03:11:36.187Z,14.20
2018-03-04T03:14:02.109Z,12.43
2018-03-04T03:16:31.260Z,11.97
2018-03-04T03:18:57.186Z,11.40
2018-03-04T03:21:26.822Z,11.73
2018-03-04T03:23:52.720Z,13.00
2018-03-04T03:26:21.741Z,13.17
2018-03-04T03:28:47.637Z,11.63
2018-03-04T03:31:16.689Z,10.93
2018-03-04T03:33:42.624Z,10.30
2018-03-04T03:36:08.483Z,10.33
2018-03-04T03:38:34.387Z,11.40
2018-03-04T03:41:00.296Z,11.63
2018-03-04T03:43:26.954Z,12.20
2018-03-04T03:45:52.837Z,12.80
2018-03-04T03:48:21.748Z,13.83
2018-03-04T03:50:47.679Z,12.70
2018-03-04T03:53:16.606Z,11.43
2018-03-04T03:55:42.533Z,11.52
2018-03-04T03:58:12.313Z,12.50
2018-03-04T04:00:38.224Z,13.43
2018-03-04T04:03:05.916Z,12.70
2018-03-04T04:05:31.835Z,12.37
2018-03-04T04:08:00.746Z,12.23
2018-03-04T04:10:26.639Z,9.90
2018-03-04T04:12:52.519Z,12.10
2018-03-04T04:15:18.440Z,11.63
2018-03-04T04:17:44.340Z,11.63
2018-03-04T04:20:13.508Z,12.40
2018-03-04T04:22:39.396Z,11.95
2018-03-04T04:25:08.564Z,11.00
2018-03-04T04:27:34.459Z,12.80
2018-03-04T04:30:01.227Z,12.57
2018-03-04T04:32:27.139Z,12.82
2018-03-04T04:34:55.884Z,12.70
2018-03-04T04:37:21.771Z,11.25
2018-03-04T04:39:51.076Z,11.50
2018-03-04T04:42:16.974Z,12.18
2018-03-04T04:44:46.143Z,11.70
2018-03-04T04:47:12.045Z,12.23
2018-03-04T04:49:37.930Z,13.17
2018-03-04T04:52:03.835Z,12.07
2018-03-04T04:54:29.756Z,10.67
2018-03-04T04:56:57.220Z,9.37
2018-03-04T04:59:23.336Z,7.87
2018-03-04T05:01:51.941Z,9.48
2018-03-04T05:04:17.827Z,8.98
2018-03-04T05:06:47.416Z,8.87
2018-03-04T05:09:13.724Z,8.45
2018-03-04T05:11:41.401Z,8.15
2018-03-04T05:14:07.297Z,7.95
2018-03-04T05:16:36.187Z,8.13
2018-03-04T05:19:02.090Z,8.00
2018-03-04T05:21:31.078Z,9.33
2018-03-04T05:23:56.982Z,8.23
2018-03-04T05:26:22.863Z,7.63
2018-03-04T05:28:49.714Z,7.03
2018-03-04T05:31:15.589Z,6.53
2018-03-04T05:33:42.565Z,7.07
2018-03-04T05:36:08.484Z,7.87
2018-03-04T05:38:37.722Z,5.97
2018-03-04T05:41:03.605Z,7.10
2018-03-04T05:43:33.460Z,6.93
2018-03-04T05:45:59.351Z,8.27
2018-03-04T05:48:27.192Z,6.70
2018-03-04T05:50:53.122Z,6.50
2018-03-04T05:53:22.927Z,7.93
2018-03-04T05:55:48.820Z,6.72
2018-03-04T05:58:16.047Z,7.07
2018-03-04T06:00:41.947Z,7.55
2018-03-04T06:03:08.635Z,6.12
2018-03-04T06:05:34.539Z,5.70
2018-03-04T06:08:00.478Z,5.80
2018-03-04T06:10:28.229Z,6.10
2018-03-04T06:12:54.122Z,6.43
2018-03-04T06:15:23.907Z,5.90
2018-03-04T06:17:49.764Z,6.20
2018-03-04T06:20:18.811Z,6.23
2018-03-04T06:22:44.695Z,5.62
2018-03-04T06:25:13.772Z,5.80
2018-03-04T06:27:39.665Z,6.40
2018-03-04T06:30:08.550Z,5.60
2018-03-04T06:32:34.420Z,5.00
2018-03-04T06:35:01.116Z,4.80
2018-03-04T06:37:26.994Z,4.75
2018-03-04T06:39:52.839Z,5.87
2018-03-04T06:42:18.714Z,5.87
2018-03-04T06:44:44.582Z,6.70
2018-03-04T06:47:13.725Z,6.47
2018-03-04T06:49:39.611Z,6.15
2018-03-04T06:52:09.368Z,6.87
2018-03-04T06:54:35.228Z,5.93
2018-03-04T06:57:02.647Z,5.43
2018-03-04T06:59:28.493Z,5.82
2018-03-04T07:01:57.160Z,4.87
2018-03-04T07:04:23.107Z,5.68
2018-03-04T07:06:51.893Z,5.33
2018-03-04T07:09:17.762Z,4.53
2018-03-04T07:11:47.340Z,5.73
2018-03-04T07:14:13.193Z,5.00
2018-03-04T07:16:39.036Z,4.47
2018-03-04T07:19:04.897Z,4.10
2018-03-04T07:21:30.750Z,4.47
2018-03-04T07:23:58.727Z,4.90
2018-03-04T07:26:24.603Z,5.62
2018-03-04T07:28:53.090Z,4.93
2018-03-04T07:31:19.009Z,4.65
2018-03-04T07:36:15.625Z,3.87
2018-03-04T07:38:42.978Z,3.47
2018-03-04T07:41:08.884Z,3.62
2018-03-04T07:43:38.082Z,4.60
2018-03-04T07:46:03.948Z,4.40
2018-03-04T07:48:31.997Z,4.10
2018-03-04T07:50:57.882Z,4.40
2018-03-04T07:53:23.777Z,4.30
2018-03-04T07:55:49.661Z,3.53
2018-03-04T07:58:15.584Z,18.20
2018-03-04T08:00:45.175Z,4.20
2018-03-04T08:03:11.045Z,3.60
2018-03-04T08:05:40.041Z,3.20
2018-03-04T08:08:05.901Z,3.67
2018-03-04T08:10:34.868Z,3.10
2018-03-04T08:13:00.740Z,3.67
2018-03-04T08:15:29.726Z,3.23
2018-03-04T08:17:55.634Z,4.00
2018-03-04T08:20:22.337Z,3.80
2018-03-04T08:22:48.227Z,3.77
2018-03-04T08:25:26.310Z,2.80
2018-03-04T08:28:04.426Z,3.50
2018-03-04T08:30:30.342Z,3.63
2018-03-04T08:32:56.232Z,4.07
2018-03-04T08:35:22.127Z,3.13
2018-03-04T08:37:47.976Z,2.80
2018-03-04T08:40:13.822Z,2.90
2018-03-04T08:42:39.698Z,3.30
2018-03-04T08:45:05.620Z,1.93
2018-03-04T08:47:31.510Z,2.80
2018-03-04T08:49:57.365Z,3.07
2018-03-04T08:52:23.256Z,2.73
2018-03-04T08:54:49.150Z,2.50
2018-03-04T08:57:15.032Z,3.80
2018-03-04T08:59:40.912Z,2.77
2018-03-04T09:02:06.803Z,2.80
2018-03-04T09:04:32.667Z,2.97
2018-03-04T09:06:58.542Z,2.73
2018-03-04T09:09:24.446Z,17.77
2018-03-04T09:11:50.370Z,20.77
2018-03-04T09:14:16.256Z,4.17
2018-03-04T09:16:42.136Z,2.43
2018-03-04T09:19:08.725Z,2.23
2018-03-04T09:21:34.625Z,3.20
2018-03-04T09:24:03.267Z,2.70
2018-03-04T09:26:29.151Z,3.13
2018-03-04T09:31:26.021Z,2.20
2018-03-04T09:33:53.418Z,2.30
2018-03-04T09:36:19.314Z,2.83
2018-03-04T09:38:48.325Z,2.37
2018-03-04T09:41:14.159Z,2.40
2018-03-04T09:43:40.034Z,1.90
2018-03-04T09:46:05.932Z,2.30
2018-03-04T09:48:31.841Z,2.20
2018-03-04T09:51:01.275Z,2.20
2018-03-04T09:53:27.170Z,2.10
2018-03-04T09:55:54.962Z,2.17
2018-03-04T09:58:20.862Z,2.13
2018-03-04T10:00:50.659Z,2.40
2018-03-04T10:03:16.559Z,2.00
2018-03-04T10:05:43.734Z,2.07
2018-03-04T10:08:09.681Z,2.17
2018-03-04T10:10:38.296Z,2.47
2018-03-04T10:13:04.278Z,2.70
2018-03-04T10:15:33.096Z,2.17
2018-03-04T10:17:58.979Z,2.20
2018-03-04T10:20:24.851Z,2.30
2018-03-04T10:22:50.755Z,2.10
2018-03-04T10:25:16.661Z,2.67
2018-03-04T10:27:45.962Z,2.33
2018-03-04T10:30:11.856Z,2.35
2018-03-04T10:32:39.568Z,2.30
2018-03-04T10:35:05.462Z,2.67
2018-03-04T10:37:34.173Z,2.23
2018-03-04T10:40:00.050Z,2.28
2018-03-04T10:42:29.270Z,2.67
2018-03-04T10:44:55.194Z,1.90
2018-03-04T10:47:24.264Z,1.83
2018-03-04T10:49:50.187Z,2.65
2018-03-04T10:52:19.334Z,1.93
2018-03-04T10:54:45.226Z,1.90
2018-03-04T10:57:11.092Z,1.97
2018-03-04T10:59:37.013Z,2.17
2018-03-04T11:02:03.912Z,2.17
2018-03-04T11:04:31.080Z,2.30
2018-03-04T11:06:56.990Z,2.20
2018-03-04T11:09:25.945Z,1.77
2018-03-04T11:11:51.841Z,1.90
2018-03-04T11:14:19.661Z,1.60
2018-03-04T11:16:45.563Z,1.87
2018-03-04T11:19:15.896Z,1.83
2018-03-04T11:21:41.807Z,1.50
2018-03-04T11:24:09.610Z,1.50
2018-03-04T11:26:35.514Z,2.10
2018-03-04T11:29:05.280Z,1.80
2018-03-04T11:31:31.168Z,1.87
2018-03-04T11:33:57.081Z,2.33
2018-03-04T11:36:23.013Z,1.57
2018-03-04T11:38:48.919Z,1.60
2018-03-04T11:41:16.212Z,1.63
2018-03-04T11:43:42.132Z,1.50
2018-03-04T11:46:11.131Z,1.40
2018-03-04T11:48:37.027Z,1.70
2018-03-04T11:51:05.931Z,1.83
2018-03-04T11:53:31.850Z,1.50
2018-03-04T11:55:59.648Z,1.90
2018-03-04T11:58:25.669Z,2.00
2018-03-04T12:00:54.695Z,2.20
2018-03-04T12:03:20.558Z,1.50
2018-03-04T12:05:49.723Z,1.63
2018-03-04T12:08:15.610Z,1.50
2018-03-04T12:10:41.484Z,2.00
2018-03-04T12:13:08.180Z,1.87
2018-03-04T12:15:34.104Z,2.37
2018-03-04T12:18:00.724Z,2.67
2018-03-04T12:20:26.643Z,2.00
2018-03-04T12:22:56.365Z,1.90
2018-03-04T12:25:22.324Z,2.08
2018-03-04T12:27:50.203Z,1.90
2018-03-04T12:30:16.066Z,2.47
2018-03-04T12:32:44.562Z,2.07
2018-03-04T12:35:10.511Z,1.90
2018-03-04T12:37:39.542Z,1.63
2018-03-04T12:40:05.430Z,1.40
2018-03-04T12:42:34.229Z,2.03
2018-03-04T12:45:00.164Z,1.70
2018-03-04T12:47:26.232Z,1.90
2018-03-04T12:49:52.096Z,3.03
2018-03-04T12:52:17.968Z,1.40
2018-03-04T12:54:47.006Z,1.00
2018-03-04T12:57:12.926Z,1.30
2018-03-04T12:59:40.959Z,1.13
2018-03-04T13:02:06.835Z,1.53
2018-03-04T13:04:35.765Z,1.17
2018-03-04T13:07:01.741Z,1.83
2018-03-04T13:09:30.897Z,1.07
2018-03-04T13:11:56.795Z,1.80
2018-03-04T13:14:25.724Z,1.27
2018-03-04T13:16:51.653Z,1.70
2018-03-04T13:19:20.591Z,1.20
2018-03-04T13:21:46.445Z,1.10
2018-03-04T13:24:12.362Z,1.10
2018-03-04T13:26:38.236Z,1.30
2018-03-04T13:29:04.146Z,1.07
2018-03-04T13:31:31.642Z,1.27
2018-03-04T13:33:57.587Z,1.10
2018-03-04T13:36:26.367Z,0.93
2018-03-04T13:38:52.271Z,1.30
2018-03-04T13:41:21.591Z,1.27
2018-03-04T13:43:47.494Z,2.60
2018-03-04T13:46:16.384Z,0.77
2018-03-04T13:48:42.307Z,1.73
2018-03-04T13:51:11.323Z,1.43
2018-03-04T13:53:37.224Z,1.17
2018-03-04T13:56:04.876Z,1.97
2018-03-04T13:58:30.776Z,1.03
2018-03-04T14:00:56.668Z,2.30
2018-03-04T14:03:22.552Z,1.90
2018-03-04T14:05:48.423Z,2.10
2018-03-04T14:08:18.100Z,2.63
2018-03-04T14:10:44.003Z,2.30
2018-03-04T14:13:11.831Z,1.90
2018-03-04T14:15:37.743Z,2.20
2018-03-04T14:18:06.894Z,1.77
2018-03-04T14:20:32.783Z,1.90
2018-03-04T14:23:01.813Z,2.50
2018-03-04T14:25:27.739Z,2.13
2018-03-04T14:27:55.671Z,2.30
2018-03-04T14:30:21.581Z,1.92
2018-03-04T14:32:50.410Z,2.20
2018-03-04T14:35:16.291Z,1.77
2018-03-04T14:37:42.199Z,1.40
2018-03-04T14:40:08.083Z,1.43
2018-03-04T14:42:33.970Z,2.00
2018-03-04T14:45:03.582Z,2.10
2018-03-04T14:47:29.456Z,1.67
2018-03-04T14:49:58.586Z,1.37
2018-03-04T14:52:24.506Z,1.93
2018-03-04T14:54:52.203Z,2.43
2018-03-04T14:57:18.140Z,1.60
2018-03-04T14:59:47.121Z,0.90
2018-03-04T15:02:13.002Z,1.10
2018-03-04T15:04:41.987Z,1.30
2018-03-04T15:07:07.884Z,1.20
2018-03-04T15:09:35.678Z,1.20
2018-03-04T15:12:01.599Z,1.20
2018-03-04T15:14:34.360Z,0.97
2018-03-04T15:17:00.376Z,1.20
2018-03-04T15:19:26.273Z,1.25
2018-03-04T15:21:52.186Z,1.20
2018-03-04T15:24:18.089Z,1.10
2018-03-04T15:26:43.963Z,1.90
2018-03-04T15:29:09.879Z,1.40
2018-03-04T15:31:37.456Z,1.43
2018-03-04T15:34:03.350Z,1.48
2018-03-04T15:36:32.300Z,1.47
2018-03-04T15:38:58.215Z,2.35
2018-03-04T15:41:27.195Z,1.90
2018-03-04T15:43:53.103Z,1.98
2018-03-04T15:46:21.001Z,1.97
2018-03-04T15:48:46.876Z,2.47
2018-03-04T15:51:12.763Z,1.83
2018-03-04T15:53:38.657Z,2.50
2018-03-04T15:56:04.553Z,1.80
2018-03-04T15:58:34.265Z,1.97
2018-03-04T16:01:00.166Z,2.30
2018-03-04T16:03:28.093Z,2.23
2018-03-04T16:05:54.007Z,1.80
2018-03-04T16:08:22.129Z,1.73
2018-03-04T16:10:48.037Z,2.45
2018-03-04T16:13:16.829Z,3.20
2018-03-04T16:15:42.718Z,2.10
2018-03-04T16:18:13.033Z,2.00
2018-03-04T16:20:38.919Z,2.15
2018-03-04T16:23:08.039Z,1.90
2018-03-04T16:25:33.959Z,1.40
2018-03-04T16:27:59.824Z,1.97
2018-03-04T16:30:25.716Z,2.13
2018-03-04T16:32:51.620Z,1.43
2018-03-04T16:35:18.945Z,1.90
2018-03-04T16:37:44.814Z,1.60
2018-03-04T16:40:12.661Z,1.67
2018-03-04T16:42:38.594Z,1.80
2018-03-04T16:45:08.071Z,2.10
2018-03-04T16:47:33.972Z,1.70
2018-03-04T16:50:03.709Z,1.93
2018-03-04T16:52:29.609Z,1.70
2018-03-04T16:54:56.842Z,1.50
2018-03-04T16:57:22.744Z,1.58
2018-03-04T16:59:51.523Z,2.37
2018-03-04T17:02:17.427Z,2.15
2018-03-04T17:04:43.315Z,1.73
2018-03-04T17:07:09.215Z,1.90
2018-03-04T17:09:35.108Z,2.67
2018-03-04T17:12:04.664Z,2.60
2018-03-04T17:14:30.556Z,2.53
2018-03-04T17:16:59.650Z,2.13
2018-03-04T17:19:25.544Z,1.80
2018-03-04T17:21:53.392Z,2.60
2018-03-04T17:27:09.982Z,2.00
2018-03-04T17:29:35.846Z,1.77
2018-03-04T17:32:01.792Z,2.20
2018-03-04T17:34:27.657Z,1.57
2018-03-04T17:39:43.614Z,1.80
2018-03-04T17:42:09.554Z,1.50
2018-03-04T17:44:35.449Z,1.53
2018-03-04T17:47:01.373Z,1.63
2018-03-04T17:49:35.458Z,2.53
2018-03-04T17:52:01.340Z,1.95
2018-03-04T17:54:27.229Z,2.50
2018-03-04T17:56:53.154Z,1.97
2018-03-04T18:02:13.117Z,2.55
2018-03-04T18:04:39.037Z,1.40
2018-03-04T18:07:08.022Z,1.40
2018-03-04T18:09:33.887Z,2.03
2018-03-04T18:12:01.803Z,1.67
2018-03-04T18:14:27.697Z,2.30
2018-03-04T18:16:55.674Z,1.77
2018-03-04T18:19:21.560Z,1.80
2018-03-04T18:21:51.019Z,1.93
2018-03-04T18:24:16.937Z,1.92
2018-03-04T18:26:46.649Z,2.03
2018-03-04T18:29:12.548Z,1.90
2018-03-04T18:31:41.746Z,3.33
2018-03-04T18:34:07.649Z,2.72
2018-03-04T18:36:34.342Z,3.33
2018-03-04T18:39:00.264Z,3.15
2018-03-04T18:41:30.483Z,2.63
2018-03-04T18:43:56.450Z,3.10
2018-03-04T18:46:25.589Z,2.93
2018-03-04T18:48:51.512Z,2.72
2018-03-04T18:51:19.350Z,4.40
2018-03-04T18:53:45.261Z,3.12
2018-03-04T18:56:14.262Z,3.03
2018-03-04T18:58:40.188Z,2.95
2018-03-04T19:01:07.916Z,4.00
2018-03-04T19:03:33.813Z,3.95
2018-03-04T19:06:02.716Z,3.93
2018-03-04T19:08:28.605Z,3.97
2018-03-04T19:10:54.487Z,4.13
2018-03-04T19:13:20.383Z,6.63
2018-03-04T19:15:46.309Z,10.03
2018-03-04T19:18:15.296Z,9.60
2018-03-04T19:20:41.224Z,10.57
2018-03-04T19:23:11.034Z,8.80
2018-03-04T19:25:36.950Z,7.60
2018-03-04T19:28:03.983Z,13.67
2018-03-04T19:30:29.908Z,21.80
2018-03-04T19:32:59.143Z,8.40
2018-03-04T19:35:25.029Z,5.00
2018-03-04T19:37:53.983Z,10.37
2018-03-04T19:40:19.874Z,18.67
2018-03-04T19:42:48.028Z,12.20
2018-03-04T19:45:13.931Z,10.25
2018-03-04T19:47:39.851Z,3.90
2018-03-04T19:50:05.779Z,4.40
2018-03-04T19:52:31.663Z,3.40
2018-03-04T19:55:01.508Z,4.40
2018-03-04T19:57:27.392Z,4.47
2018-03-04T19:59:56.445Z,4.80
2018-03-04T20:02:22.311Z,4.87
2018-03-04T20:04:49.405Z,4.60
2018-03-04T20:07:15.292Z,4.22
2018-03-04T20:09:44.163Z,4.67
2018-03-04T20:12:10.081Z,5.35
2018-03-04T20:14:39.989Z,5.10
2018-03-04T20:17:05.892Z,4.35
2018-03-04T20:19:34.910Z,4.30
2018-03-04T20:22:00.784Z,5.35
2018-03-04T20:24:26.692Z,4.73
2018-03-04T20:26:52.604Z,13.67
2018-03-04T20:29:18.483Z,59.17
2018-03-04T20:31:45.245Z,6.13
2018-03-04T20:34:11.132Z,4.57
2018-03-04T20:36:39.696Z,5.40
2018-03-04T20:39:05.622Z,6.60
2018-03-04T20:41:34.396Z,5.07
2018-03-04T20:44:00.307Z,4.78
2018-03-04T20:46:29.102Z,4.70
2018-03-04T20:48:54.970Z,5.60
2018-03-04T20:51:23.615Z,5.60
2018-03-04T20:53:49.533Z,5.80
2018-03-04T20:56:18.743Z,5.17
2018-03-04T20:58:44.663Z,4.70
2018-03-04T21:01:10.575Z,3.77
2018-03-04T21:03:36.484Z,5.00
2018-03-04T21:06:02.406Z,5.50
2018-03-04T21:08:32.246Z,4.80
2018-03-04T21:10:58.163Z,3.45
2018-03-04T21:13:24.885Z,5.47
2018-03-04T21:15:50.807Z,5.22
2018-03-04T21:18:19.573Z,6.23
2018-03-04T21:20:45.490Z,5.57
2018-03-04T21:23:14.393Z,6.70
2018-03-04T21:25:40.300Z,4.35
2018-03-04T21:28:09.322Z,5.17
2018-03-04T21:30:35.224Z,5.00
2018-03-04T21:33:04.246Z,5.10
2018-03-04T21:35:30.165Z,5.00
2018-03-04T21:37:56.082Z,4.30
2018-03-04T21:40:21.992Z,4.60
2018-03-04T21:42:47.919Z,5.20
2018-03-04T21:45:17.636Z,6.57
2018-03-04T21:47:43.540Z,5.10
2018-03-04T21:50:11.387Z,6.10
2018-03-04T21:52:37.303Z,6.40
2018-03-04T21:55:05.127Z,4.90
2018-03-04T21:57:31.030Z,4.95
2018-03-04T21:59:59.719Z,5.00
2018-03-04T22:02:25.576Z,5.10
2018-03-04T22:04:54.223Z,4.23
2018-03-04T22:07:20.139Z,4.47
2018-03-04T22:09:49.205Z,4.83
2018-03-04T22:12:15.133Z,6.30
2018-03-04T22:14:41.085Z,8.60
2018-03-04T22:17:06.997Z,9.00
2018-03-04T22:19:32.863Z,6.57
2018-03-04T22:22:04.784Z,4.33
2018-03-04T22:24:30.703Z,13.05
2018-03-04T22:26:56.603Z,8.50
2018-03-04T22:29:22.814Z,5.27
2018-03-04T22:31:50.482Z,7.35
2018-03-04T22:34:16.368Z,8.07
2018-03-04T22:36:45.816Z,7.23
2018-03-04T22:39:11.722Z,4.15
2018-03-04T22:41:39.839Z,4.00
2018-03-04T22:44:05.749Z,4.90
2018-03-04T22:46:34.611Z,3.60
2018-03-04T22:49:00.505Z,3.58
2018-03-04T22:51:26.407Z,1.97
2018-03-04T22:53:52.349Z,2.07
2018-03-04T22:56:18.271Z,2.37
2018-03-04T22:58:48.133Z,1.10
2018-03-04T23:01:14.031Z,0.80
2018-03-04T23:03:41.050Z,1.20
2018-03-04T23:06:07.002Z,1.00
2018-03-04T23:08:36.042Z,0.80
2018-03-04T23:11:01.924Z,0.90
2018-03-04T23:13:31.082Z,0.80
2018-03-04T23:15:56.986Z,0.80
2018-03-04T23:18:27.185Z,0.73
2018-03-04T23:20:53.055Z,1.67
2018-03-04T23:23:19.964Z,0.80
2018-03-04T23:25:45.869Z,0.95
2018-03-04T23:28:11.761Z,1.10
2018-03-04T23:30:37.659Z,1.03
2018-03-04T23:33:03.610Z,1.70
2018-03-04T23:35:33.093Z,2.27
2018-03-04T23:37:59.013Z,1.40
2018-03-04T23:40:28.009Z,1.10
2018-03-04T23:42:53.892Z,1.00
2018-03-04T23:45:21.759Z,1.30
2018-03-04T23:47:47.686Z,1.12
2018-03-04T23:50:17.607Z,0.80
2018-03-04T23:52:43.483Z,0.70
2018-03-04T23:55:10.402Z,0.97
2018-03-04T23:57:36.338Z,0.57
